createdAt,value
2018-09-26T00:00:12.596Z,8.71
2018-09-26T00:01:12.577Z,8.58
2018-09-26T00:02:12.513Z,8.61
2018-09-26T00:03:12.499Z,8.59
2018-09-26T00:04:12.433Z,8.59
2018-09-26T00:05:12.383Z,8.43
2018-09-26T00:06:12.359Z,8.41
2018-09-26T00:07:12.307Z,8.41
2018-09-26T00:08:12.281Z,8.34
2018-09-26T00:09:12.225Z,8.28
2018-09-26T00:10:12.203Z,8.23
2018-09-26T00:11:12.165Z,8.23
2018-09-26T00:12:12.100Z,8.18
2018-09-26T00:13:12.062Z,8.10
2018-09-26T00:14:12.008Z,8.05
2018-09-26T00:15:11.988Z,7.92
2018-09-26T00:16:11.946Z,7.97
2018-09-26T00:17:11.882Z,7.92
2018-09-26T00:18:11.856Z,7.85
2018-09-26T00:19:11.812Z,7.86
2018-09-26T00:20:11.794Z,7.77
2018-09-26T00:21:11.749Z,7.83
2018-09-26T00:22:11.676Z,7.72
2018-09-26T00:23:11.633Z,7.69
2018-09-26T00:24:11.583Z,7.63
2018-09-26T00:25:11.546Z,7.50
2018-09-26T00:26:11.541Z,7.43
2018-09-26T00:27:11.461Z,7.48
2018-09-26T00:28:11.424Z,7.34
2018-09-26T00:29:11.372Z,7.40
2018-09-26T00:30:11.355Z,7.39
2018-09-26T00:31:11.286Z,7.39
2018-09-26T00:32:11.254Z,7.35
2018-09-26T00:33:11.225Z,7.30
2018-09-26T00:34:11.162Z,7.32
2018-09-26T00:35:11.153Z,7.27
2018-09-26T00:36:11.155Z,7.28
2018-09-26T00:37:11.061Z,7.34
2018-09-26T00:38:10.990Z,7.28
2018-09-26T00:39:10.972Z,7.28
2018-09-26T00:40:10.914Z,7.27
2018-09-26T00:41:10.888Z,7.40
2018-09-26T00:42:10.823Z,7.42
2018-09-26T00:43:10.779Z,7.42
2018-09-26T00:44:10.755Z,7.52
2018-09-26T00:45:10.726Z,7.57
2018-09-26T00:46:10.656Z,7.60
2018-09-26T00:47:10.620Z,7.57
2018-09-26T00:48:10.577Z,7.53
2018-09-26T00:49:10.574Z,7.61
2018-09-26T00:50:10.538Z,7.63
2018-09-26T00:51:10.437Z,7.58
2018-09-26T00:52:10.409Z,7.72
2018-09-26T00:53:10.359Z,7.83
2018-09-26T00:54:10.312Z,7.74
2018-09-26T00:55:10.327Z,7.80
2018-09-26T00:56:10.236Z,7.90
2018-09-26T00:57:10.178Z,7.87
2018-09-26T00:58:10.145Z,7.95
2018-09-26T00:59:10.108Z,8.05
2018-09-26T01:00:10.102Z,8.08
2018-09-26T01:01:10.020Z,8.10
2018-09-26T01:02:09.992Z,8.18
2018-09-26T01:03:09.925Z,8.23
2018-09-26T01:04:09.883Z,8.33
2018-09-26T01:05:09.865Z,8.44
2018-09-26T01:06:09.801Z,8.48
2018-09-26T01:07:09.760Z,8.48
2018-09-26T01:08:09.732Z,8.47
2018-09-26T01:09:09.666Z,8.59
2018-09-26T01:10:09.645Z,8.56
2018-09-26T01:11:09.587Z,8.65
2018-09-26T01:12:09.575Z,8.65
2018-09-26T01:13:09.503Z,8.62
2018-09-26T01:14:09.466Z,8.65
2018-09-26T01:15:09.432Z,8.70
2018-09-26T01:16:09.374Z,8.80
2018-09-26T01:17:09.333Z,8.81
2018-09-26T01:18:09.284Z,8.80
2018-09-26T01:19:09.270Z,8.84
2018-09-26T01:20:09.202Z,8.86
2018-09-26T01:21:09.164Z,8.87
2018-09-26T01:22:09.124Z,8.91
2018-09-26T01:23:09.073Z,8.86
2018-09-26T01:24:09.025Z,8.91
2018-09-26T01:25:09.054Z,8.83
2018-09-26T01:26:08.955Z,8.87
2018-09-26T01:27:08.902Z,8.80
2018-09-26T01:28:08.868Z,8.80
2018-09-26T01:29:08.834Z,8.79
2018-09-26T01:30:08.770Z,8.81
2018-09-26T01:31:08.734Z,8.83
2018-09-26T01:32:08.703Z,8.79
2018-09-26T01:33:08.673Z,8.84
2018-09-26T01:34:08.632Z,8.76
2018-09-26T01:35:08.565Z,8.84
2018-09-26T01:36:08.523Z,8.83
2018-09-26T01:37:08.483Z,8.77
2018-09-26T01:38:08.432Z,8.83
2018-09-26T01:39:08.451Z,8.81
2018-09-26T01:40:08.361Z,8.84
2018-09-26T01:41:08.313Z,8.87
2018-09-26T01:42:08.272Z,8.80
2018-09-26T01:43:08.245Z,8.77
2018-09-26T01:44:08.232Z,8.80
2018-09-26T01:45:08.176Z,8.84
2018-09-26T01:46:08.105Z,8.81
2018-09-26T01:47:08.079Z,8.83
2018-09-26T01:48:08.012Z,8.77
2018-09-26T01:49:08.005Z,8.79
2018-09-26T01:50:07.943Z,8.77
2018-09-26T01:51:07.890Z,8.74
2018-09-26T01:52:07.847Z,8.76
2018-09-26T01:53:07.805Z,8.73
2018-09-26T01:54:07.786Z,8.59
2018-09-26T01:55:07.728Z,8.59
2018-09-26T01:56:07.671Z,8.52
2018-09-26T01:57:07.631Z,8.61
2018-09-26T01:58:07.590Z,8.63
2018-09-26T01:59:07.569Z,8.50
2018-09-26T02:00:07.504Z,8.65
2018-09-26T02:01:07.459Z,8.61
2018-09-26T02:02:07.423Z,8.59
2018-09-26T02:03:07.411Z,8.55
2018-09-26T02:04:07.361Z,8.55
2018-09-26T02:05:07.302Z,8.59
2018-09-26T02:06:07.255Z,8.50
2018-09-26T02:07:07.206Z,8.59
2018-09-26T02:08:07.202Z,8.62
2018-09-26T02:09:07.122Z,8.66
2018-09-26T02:10:07.079Z,8.66
2018-09-26T02:11:07.042Z,8.70
2018-09-26T02:12:06.996Z,8.58
2018-09-26T02:13:06.988Z,8.65
2018-09-26T02:14:06.912Z,8.59
2018-09-26T02:15:06.873Z,8.58
2018-09-26T02:16:06.847Z,8.68
2018-09-26T02:17:06.794Z,8.73
2018-09-26T02:18:06.772Z,8.70
2018-09-26T02:19:06.701Z,8.68
2018-09-26T02:20:06.667Z,8.62
2018-09-26T02:21:06.623Z,8.62
2018-09-26T02:22:06.574Z,8.65
2018-09-26T02:23:06.564Z,8.59
2018-09-26T02:24:06.496Z,8.62
2018-09-26T02:25:06.476Z,8.58
2018-09-26T02:26:06.406Z,8.53
2018-09-26T02:27:06.361Z,8.62
2018-09-26T02:28:06.341Z,8.58
2018-09-26T02:29:06.283Z,8.62
2018-09-26T02:30:06.263Z,8.63
2018-09-26T02:31:06.192Z,8.62
2018-09-26T02:32:06.155Z,8.61
2018-09-26T02:33:06.123Z,8.61
2018-09-26T02:34:06.062Z,8.63
2018-09-26T02:35:06.030Z,8.59
2018-09-26T02:36:05.987Z,8.63
2018-09-26T02:37:05.972Z,8.62
2018-09-26T02:38:05.934Z,8.61
2018-09-26T02:39:05.849Z,8.53
2018-09-26T02:40:05.804Z,8.62
2018-09-26T02:41:05.785Z,8.61
2018-09-26T02:42:05.747Z,8.59
2018-09-26T02:43:05.722Z,8.66
2018-09-26T02:44:05.648Z,8.62
2018-09-26T02:45:05.599Z,8.63
2018-09-26T02:46:05.554Z,8.61
2018-09-26T02:47:05.535Z,8.68
2018-09-26T02:48:05.519Z,8.66
2018-09-26T02:49:05.440Z,8.68
2018-09-26T02:50:05.399Z,8.61
2018-09-26T02:51:05.352Z,8.70
2018-09-26T02:52:05.330Z,8.62
2018-09-26T02:53:05.258Z,8.68
2018-09-26T02:54:05.222Z,8.63
2018-09-26T02:55:05.184Z,8.65
2018-09-26T02:56:05.143Z,8.62
2018-09-26T02:57:05.135Z,8.65
2018-09-26T02:58:05.052Z,8.61
2018-09-26T02:59:05.013Z,8.59
2018-09-26T03:00:04.966Z,8.59
2018-09-26T03:01:04.934Z,8.62
2018-09-26T03:02:04.910Z,8.63
2018-09-26T03:03:04.838Z,8.53
2018-09-26T03:04:04.789Z,8.62
2018-09-26T03:05:04.749Z,8.59
2018-09-26T03:06:04.719Z,8.45
2018-09-26T03:07:04.700Z,8.45
2018-09-26T03:08:04.664Z,8.48
2018-09-26T03:09:04.582Z,8.52
2018-09-26T03:10:04.538Z,8.45
2018-09-26T03:11:04.546Z,8.53
2018-09-26T03:12:04.476Z,8.45
2018-09-26T03:13:04.409Z,8.47
2018-09-26T03:14:04.375Z,8.45
2018-09-26T03:15:04.339Z,8.48
2018-09-26T03:16:04.283Z,8.41
2018-09-26T03:17:04.289Z,8.47
2018-09-26T03:18:04.210Z,8.40
2018-09-26T03:19:04.166Z,8.33
2018-09-26T03:20:04.120Z,8.26
2018-09-26T03:21:04.110Z,8.30
2018-09-26T03:22:04.072Z,8.30
2018-09-26T03:23:03.991Z,8.23
2018-09-26T03:24:03.958Z,8.15
2018-09-26T03:25:03.903Z,8.12
2018-09-26T03:26:03.859Z,8.12
2018-09-26T03:27:03.855Z,8.11
2018-09-26T03:28:03.794Z,8.18
2018-09-26T03:29:03.738Z,8.10
2018-09-26T03:30:03.706Z,8.12
2018-09-26T03:31:03.647Z,8.18
2018-09-26T03:32:03.621Z,8.16
2018-09-26T03:33:03.596Z,8.18
2018-09-26T03:34:03.538Z,8.11
2018-09-26T03:35:03.501Z,8.08
2018-09-26T03:36:03.459Z,8.12
2018-09-26T03:37:03.433Z,8.11
2018-09-26T03:38:03.346Z,8.19
2018-09-26T03:39:03.347Z,8.16
2018-09-26T03:40:03.274Z,8.18
2018-09-26T03:41:03.234Z,8.18
2018-09-26T03:42:03.184Z,8.16
2018-09-26T03:43:03.184Z,8.16
2018-09-26T03:44:03.089Z,8.07
2018-09-26T03:45:03.050Z,8.07
2018-09-26T03:46:03.003Z,8.12
2018-09-26T03:47:02.978Z,7.98
2018-09-26T03:48:02.983Z,8.01
2018-09-26T03:49:02.875Z,7.92
2018-09-26T03:50:02.877Z,7.86
2018-09-26T03:51:02.820Z,7.83
2018-09-26T03:52:02.780Z,7.80
2018-09-26T03:53:02.713Z,7.74
2018-09-26T03:54:02.700Z,7.60
2018-09-26T03:55:02.651Z,7.57
2018-09-26T03:56:02.594Z,7.64
2018-09-26T03:57:02.550Z,7.58
2018-09-26T03:58:02.531Z,7.55
2018-09-26T03:59:02.460Z,7.50
2018-09-26T04:00:02.464Z,7.55
2018-09-26T04:01:02.402Z,7.55
2018-09-26T04:02:02.337Z,7.49
2018-09-26T04:03:02.307Z,7.57
2018-09-26T04:04:02.288Z,7.39
2018-09-26T04:05:02.358Z,7.43
2018-09-26T04:06:02.176Z,7.55
2018-09-26T04:07:02.116Z,7.46
2018-09-26T04:08:02.092Z,7.52
2018-09-26T04:09:02.078Z,7.55
2018-09-26T04:10:02.000Z,7.57
2018-09-26T04:11:01.966Z,7.55
2018-09-26T04:12:01.913Z,7.68
2018-09-26T04:13:01.889Z,7.61
2018-09-26T04:14:01.849Z,7.58
2018-09-26T04:15:01.778Z,7.67
2018-09-26T04:16:01.737Z,7.68
2018-09-26T04:17:01.687Z,7.69
2018-09-26T04:18:01.670Z,7.68
2018-09-26T04:19:01.646Z,7.69
2018-09-26T04:20:01.569Z,7.75
2018-09-26T04:21:01.528Z,7.75
2018-09-26T04:22:01.479Z,7.83
2018-09-26T04:23:01.444Z,7.85
2018-09-26T04:24:01.392Z,7.80
2018-09-26T04:25:01.402Z,7.85
2018-09-26T04:26:01.326Z,7.85
2018-09-26T04:27:01.495Z,7.85
2018-09-26T04:28:01.215Z,7.69
2018-09-26T04:29:01.180Z,7.77
2018-09-26T04:30:01.150Z,7.83
2018-09-26T04:31:01.100Z,7.86
2018-09-26T04:32:01.067Z,7.97
2018-09-26T04:33:01.330Z,7.95
2018-09-26T04:34:00.969Z,7.92
2018-09-26T04:35:00.939Z,7.98
2018-09-26T04:36:00.887Z,7.97
2018-09-26T04:37:00.840Z,8.07
2018-09-26T04:38:00.818Z,8.05
2018-09-26T04:39:00.759Z,8.05
2018-09-26T04:40:00.728Z,8.05
2018-09-26T04:41:00.665Z,8.16
2018-09-26T04:42:00.620Z,8.19
2018-09-26T04:43:00.604Z,8.20
2018-09-26T04:44:00.549Z,8.23
2018-09-26T04:45:11.243Z,8.28
2018-09-26T04:46:00.452Z,8.25
2018-09-26T04:47:00.415Z,8.22
2018-09-26T04:48:00.635Z,8.36
2018-09-26T04:49:00.326Z,8.44
2018-09-26T04:50:00.274Z,8.44
2018-09-26T04:51:00.285Z,8.43
2018-09-26T04:52:00.229Z,8.45
2018-09-26T04:53:00.152Z,8.43
2018-09-26T04:54:00.120Z,8.43
2018-09-26T04:55:00.064Z,8.37
2018-09-26T04:56:00.039Z,8.38
2018-09-26T04:57:00.006Z,8.34
2018-09-26T04:58:00.031Z,8.23
2018-09-26T04:58:59.890Z,8.28
2018-09-26T04:59:59.857Z,8.38
2018-09-26T05:00:59.842Z,8.40
2018-09-26T05:01:59.783Z,8.59
2018-09-26T05:02:59.728Z,8.59
2018-09-26T05:03:59.682Z,8.52
2018-09-26T05:04:59.636Z,8.50
2018-09-26T05:05:59.588Z,8.44
2018-09-26T05:06:59.584Z,8.47
2018-09-26T05:07:59.513Z,8.52
2018-09-26T05:08:59.476Z,8.53
2018-09-26T05:09:59.427Z,8.59
2018-09-26T05:10:59.381Z,8.58
2018-09-26T05:11:59.374Z,8.61
2018-09-26T05:12:59.296Z,8.47
2018-09-26T05:13:59.271Z,8.52
2018-09-26T05:14:59.229Z,8.48
2018-09-26T05:15:59.195Z,8.52
2018-09-26T05:16:59.150Z,8.52
2018-09-26T05:17:59.087Z,8.50
2018-09-26T05:18:59.049Z,8.45
2018-09-26T05:19:59.005Z,8.50
2018-09-26T05:20:58.978Z,8.45
2018-09-26T05:21:58.955Z,8.48
2018-09-26T05:22:58.882Z,8.45
2018-09-26T05:23:58.838Z,8.48
2018-09-26T05:24:58.786Z,8.44
2018-09-26T05:25:58.747Z,8.48
2018-09-26T05:26:58.711Z,8.45
2018-09-26T05:27:58.708Z,8.52
2018-09-26T05:28:58.611Z,8.43
2018-09-26T05:29:58.578Z,8.43
2018-09-26T05:30:58.541Z,8.47
2018-09-26T05:31:58.482Z,8.47
2018-09-26T05:32:58.491Z,8.44
2018-09-26T05:33:58.421Z,8.43
2018-09-26T05:34:58.371Z,8.43
2018-09-26T05:35:58.329Z,8.45
2018-09-26T05:36:58.301Z,8.44
2018-09-26T05:37:58.228Z,8.37
2018-09-26T05:38:58.232Z,8.33
2018-09-26T05:39:58.154Z,8.29
2018-09-26T05:40:58.131Z,8.26
2018-09-26T05:41:58.068Z,8.38
2018-09-26T05:42:58.022Z,8.38
2018-09-26T05:43:57.997Z,8.38
2018-09-26T05:44:57.940Z,8.38
2018-09-26T05:45:57.904Z,8.41
2018-09-26T05:46:57.868Z,8.37
2018-09-26T05:47:57.815Z,8.34
2018-09-26T05:48:57.788Z,8.41
2018-09-26T05:49:57.723Z,8.43
2018-09-26T05:50:57.700Z,8.43
2018-09-26T05:51:57.637Z,8.45
2018-09-26T05:52:57.612Z,8.41
2018-09-26T05:53:57.582Z,8.50
2018-09-26T05:54:57.530Z,8.59
2018-09-26T05:55:57.471Z,8.86
2018-09-26T05:56:57.430Z,8.92
2018-09-26T05:57:57.396Z,8.95
2018-09-26T05:58:57.352Z,9.05
2018-09-26T05:59:57.335Z,9.13
2018-09-26T06:00:57.256Z,9.14
2018-09-26T06:01:57.216Z,9.11
2018-09-26T06:02:57.228Z,9.14
2018-09-26T06:03:57.129Z,9.13
2018-09-26T06:04:57.122Z,9.26
2018-09-26T06:05:57.067Z,9.17
2018-09-26T06:06:57.009Z,9.15
2018-09-26T06:07:56.970Z,9.23
2018-09-26T06:08:56.917Z,9.36
2018-09-26T06:09:56.914Z,9.33
2018-09-26T06:10:56.840Z,9.48
2018-09-26T06:11:56.801Z,9.66
2018-09-26T06:12:56.889Z,9.89
2018-09-26T06:13:56.706Z,10.07
2018-09-26T06:14:56.705Z,10.38
2018-09-26T06:15:56.630Z,10.64
2018-09-26T06:16:56.590Z,11.07
2018-09-26T06:17:56.552Z,11.42
2018-09-26T06:18:56.513Z,11.51
2018-09-26T06:19:56.501Z,11.46
2018-09-26T06:20:56.458Z,11.55
2018-09-26T06:21:56.384Z,11.65
2018-09-26T06:22:56.372Z,11.52
2018-09-26T06:23:56.299Z,11.52
2018-09-26T06:24:56.291Z,11.64
2018-09-26T06:25:56.220Z,11.64
2018-09-26T06:26:56.171Z,11.61
2018-09-26T06:27:56.153Z,11.65
2018-09-26T06:28:56.101Z,11.65
2018-09-26T06:29:56.054Z,11.54
2018-09-26T06:30:56.056Z,11.52
2018-09-26T06:31:55.994Z,11.82
2018-09-26T06:32:55.942Z,12.13
2018-09-26T06:33:55.884Z,12.23
2018-09-26T06:34:55.886Z,12.29
2018-09-26T06:35:55.823Z,11.90
2018-09-26T06:36:55.779Z,11.78
2018-09-26T06:37:55.723Z,11.75
2018-09-26T06:38:55.690Z,11.61
2018-09-26T06:39:55.641Z,11.55
2018-09-26T06:40:55.631Z,11.61
2018-09-26T06:41:55.552Z,11.49
2018-09-26T06:42:55.534Z,11.49
2018-09-26T06:43:55.501Z,11.55
2018-09-26T06:44:55.441Z,11.39
2018-09-26T06:45:55.394Z,11.49
2018-09-26T06:46:55.383Z,11.42
2018-09-26T06:47:55.313Z,11.39
2018-09-26T06:48:55.292Z,11.43
2018-09-26T06:49:55.263Z,11.19
2018-09-26T06:50:55.206Z,11.15
2018-09-26T06:51:55.195Z,11.10
2018-09-26T06:52:55.116Z,11.21
2018-09-26T06:53:55.089Z,11.17
2018-09-26T06:54:55.041Z,11.10
2018-09-26T06:55:55.003Z,11.14
2018-09-26T06:56:54.972Z,11.25
2018-09-26T06:57:54.975Z,11.39
2018-09-26T06:58:54.885Z,11.55
2018-09-26T06:59:54.837Z,11.88
2018-09-26T07:00:54.805Z,11.69
2018-09-26T07:01:54.760Z,11.83
2018-09-26T07:02:54.737Z,11.98
2018-09-26T07:03:54.679Z,12.05
2018-09-26T07:04:54.646Z,12.31
2018-09-26T07:05:54.588Z,12.29
2018-09-26T07:06:54.584Z,12.42
2018-09-26T07:07:54.516Z,12.67
2018-09-26T07:08:54.484Z,12.68
2018-09-26T07:09:54.446Z,12.85
2018-09-26T07:10:54.405Z,12.83
2018-09-26T07:11:54.372Z,12.77
2018-09-26T07:12:54.342Z,12.77
2018-09-26T07:14:04.421Z,13.00
2018-09-26T07:14:54.250Z,13.07
2018-09-26T07:15:54.233Z,13.19
2018-09-26T07:16:54.179Z,13.42
2018-09-26T07:17:54.166Z,13.82
2018-09-26T07:18:54.105Z,13.96
2018-09-26T07:19:54.068Z,13.96
2018-09-26T07:20:54.013Z,14.10
2018-09-26T07:21:53.978Z,13.67
2018-09-26T07:22:53.947Z,13.71
2018-09-26T07:23:53.895Z,14.00
2018-09-26T07:24:53.854Z,14.02
2018-09-26T07:25:53.805Z,14.20
2018-09-26T07:26:53.783Z,13.66
2018-09-26T07:27:53.736Z,13.92
2018-09-26T07:28:53.715Z,14.06
2018-09-26T07:29:53.657Z,13.87
2018-09-26T07:30:53.625Z,13.92
2018-09-26T07:31:53.601Z,14.06
2018-09-26T07:32:53.586Z,14.39
2018-09-26T07:33:53.521Z,14.81
2018-09-26T07:34:53.464Z,14.99
2018-09-26T07:35:53.431Z,14.96
2018-09-26T07:36:53.399Z,15.14
2018-09-26T07:37:53.365Z,14.75
2018-09-26T07:38:53.343Z,14.84
2018-09-26T07:39:53.285Z,14.99
2018-09-26T07:40:53.244Z,14.29
2018-09-26T07:41:53.210Z,13.99
2018-09-26T07:42:53.173Z,14.04
2018-09-26T07:43:53.162Z,13.88
2018-09-26T07:44:53.105Z,13.88
2018-09-26T07:45:53.120Z,13.87
2018-09-26T07:46:53.024Z,13.84
2018-09-26T07:47:52.990Z,13.49
2018-09-26T07:48:52.992Z,13.67
2018-09-26T07:49:52.920Z,13.71
2018-09-26T07:50:52.897Z,13.82
2018-09-26T07:51:52.860Z,13.96
2018-09-26T07:52:52.831Z,14.17
2018-09-26T07:53:52.801Z,14.29
2018-09-26T07:54:52.731Z,14.06
2018-09-26T07:55:52.716Z,13.82
2018-09-26T07:56:52.666Z,13.89
2018-09-26T07:57:52.636Z,14.09
2018-09-26T07:58:52.625Z,13.89
2018-09-26T07:59:52.592Z,13.87
2018-09-26T08:00:52.506Z,13.71
2018-09-26T08:01:52.465Z,14.02
2018-09-26T08:02:52.440Z,14.29
2018-09-26T08:03:52.421Z,14.54
2018-09-26T08:04:52.389Z,14.18
2018-09-26T08:05:52.340Z,14.04
2018-09-26T08:06:52.299Z,14.09
2018-09-26T08:07:52.262Z,14.14
2018-09-26T08:08:52.214Z,14.04
2018-09-26T08:09:52.230Z,14.21
2018-09-26T08:10:52.148Z,14.04
2018-09-26T08:11:52.197Z,14.06
2018-09-26T08:12:52.091Z,13.92
2018-09-26T08:13:52.039Z,13.87
2018-09-26T08:14:52.003Z,14.06
2018-09-26T08:15:51.976Z,14.33
2018-09-26T08:16:51.926Z,14.55
2018-09-26T08:17:51.898Z,14.62
2018-09-26T08:18:51.861Z,14.80
2018-09-26T08:19:51.830Z,15.03
2018-09-26T08:20:51.777Z,15.11
2018-09-26T08:21:51.738Z,14.98
2018-09-26T08:22:51.706Z,14.28
2018-09-26T08:23:51.782Z,14.03
2018-09-26T08:24:51.659Z,14.21
2018-09-26T08:25:51.595Z,14.51
2018-09-26T08:26:51.550Z,14.91
2018-09-26T08:27:51.515Z,14.68
2018-09-26T08:28:51.472Z,14.94
2018-09-26T08:29:51.524Z,15.11
2018-09-26T08:30:51.409Z,15.46
2018-09-26T08:31:51.384Z,15.57
2018-09-26T08:32:51.326Z,15.02
2018-09-26T08:33:51.313Z,14.84
2018-09-26T08:34:51.347Z,14.52
2018-09-26T08:35:51.222Z,14.54
2018-09-26T08:36:51.196Z,14.64
2018-09-26T08:37:51.152Z,14.80
2018-09-26T08:38:51.105Z,14.92
2018-09-26T08:39:51.101Z,15.23
2018-09-26T08:40:51.037Z,15.14
2018-09-26T08:41:51.017Z,15.20
2018-09-26T08:42:50.978Z,15.46
2018-09-26T08:43:50.936Z,15.44
2018-09-26T08:44:50.925Z,15.72
2018-09-26T08:45:50.892Z,16.21
2018-09-26T08:46:50.823Z,16.42
2018-09-26T08:47:50.785Z,16.42
2018-09-26T08:48:50.776Z,16.07
2018-09-26T08:49:50.748Z,15.83
2018-09-26T08:50:50.682Z,16.20
2018-09-26T08:51:50.642Z,16.33
2018-09-26T08:52:50.614Z,16.43
2018-09-26T08:53:50.622Z,16.64
2018-09-26T08:54:50.553Z,16.89
2018-09-26T08:55:50.520Z,16.88
2018-09-26T08:56:50.476Z,17.18
2018-09-26T08:57:50.453Z,17.28
2018-09-26T08:58:50.431Z,16.39
2018-09-26T08:59:50.439Z,16.34
2018-09-26T09:00:50.352Z,16.14
2018-09-26T09:01:50.301Z,16.17
2018-09-26T09:02:50.283Z,16.12
2018-09-26T09:03:50.243Z,16.27
2018-09-26T09:04:50.239Z,16.35
2018-09-26T09:05:50.170Z,16.42
2018-09-26T09:06:50.141Z,16.56
2018-09-26T09:07:50.101Z,17.01
2018-09-26T09:08:50.071Z,17.30
2018-09-26T09:09:50.089Z,17.49
2018-09-26T09:10:50.005Z,17.63
2018-09-26T09:11:49.971Z,17.78
2018-09-26T09:12:49.924Z,17.99
2018-09-26T09:13:49.905Z,18.27
2018-09-26T09:14:49.949Z,18.05
2018-09-26T09:15:49.857Z,18.23
2018-09-26T09:16:49.804Z,17.77
2018-09-26T09:17:49.830Z,17.62
2018-09-26T09:18:49.717Z,17.68
2018-09-26T09:19:49.716Z,17.54
2018-09-26T09:20:49.657Z,17.54
2018-09-26T09:21:49.626Z,17.16
2018-09-26T09:22:49.592Z,16.76
2018-09-26T09:23:49.556Z,16.76
2018-09-26T09:24:49.515Z,16.75
2018-09-26T09:25:49.515Z,16.53
2018-09-26T09:26:49.474Z,16.33
2018-09-26T09:27:49.435Z,15.72
2018-09-26T09:28:49.391Z,15.82
2018-09-26T09:29:49.376Z,15.84
2018-09-26T09:30:49.335Z,15.59
2018-09-26T09:31:49.308Z,15.65
2018-09-26T09:32:49.269Z,15.83
2018-09-26T09:33:49.225Z,15.67
2018-09-26T09:34:49.193Z,15.31
2018-09-26T09:35:49.180Z,15.36
2018-09-26T09:36:49.116Z,15.43
2018-09-26T09:37:49.083Z,15.31
2018-09-26T09:38:49.096Z,15.36
2018-09-26T09:39:49.061Z,15.47
2018-09-26T09:40:48.972Z,15.44
2018-09-26T09:41:48.956Z,15.49
2018-09-26T09:42:48.913Z,15.31
2018-09-26T09:43:48.877Z,15.32
2018-09-26T09:44:48.854Z,15.28
2018-09-26T09:45:48.834Z,15.25
2018-09-26T09:46:48.815Z,15.32
2018-09-26T09:47:48.722Z,15.46
2018-09-26T09:48:48.696Z,15.67
2018-09-26T09:49:48.682Z,15.68
2018-09-26T09:50:48.626Z,15.62
2018-09-26T09:51:48.585Z,15.75
2018-09-26T09:52:48.544Z,16.17
2018-09-26T09:53:48.503Z,16.56
2018-09-26T09:54:48.512Z,16.98
2018-09-26T09:55:48.450Z,17.11
2018-09-26T09:56:48.422Z,17.19
2018-09-26T09:57:48.379Z,17.33
2018-09-26T09:58:48.324Z,17.62
2018-09-26T09:59:48.298Z,17.64
2018-09-26T10:00:48.302Z,17.77
2018-09-26T10:01:48.229Z,18.05
2018-09-26T10:02:48.231Z,17.70
2018-09-26T10:03:48.176Z,17.66
2018-09-26T10:04:48.135Z,17.92
2018-09-26T10:05:48.133Z,18.15
2018-09-26T10:06:48.076Z,17.70
2018-09-26T10:07:48.016Z,17.33
2018-09-26T10:08:48.059Z,17.66
2018-09-26T10:09:47.950Z,17.72
2018-09-26T10:10:47.926Z,17.41
2018-09-26T10:11:47.904Z,17.34
2018-09-26T10:12:47.844Z,17.21
2018-09-26T10:13:47.815Z,17.44
2018-09-26T10:14:47.792Z,17.70
2018-09-26T10:15:47.762Z,17.82
2018-09-26T10:16:47.715Z,17.54
2018-09-26T10:17:47.718Z,17.64
2018-09-26T10:18:47.645Z,17.68
2018-09-26T10:19:47.618Z,17.77
2018-09-26T10:20:47.574Z,17.84
2018-09-26T10:21:47.544Z,18.07
2018-09-26T10:22:47.546Z,18.18
2018-09-26T10:23:47.487Z,18.00
2018-09-26T10:24:47.441Z,18.42
2018-09-26T10:25:47.414Z,18.90
2018-09-26T10:26:47.382Z,18.99
2018-09-26T10:27:47.379Z,18.81
2018-09-26T10:28:47.324Z,18.18
2018-09-26T10:29:47.288Z,17.90
2018-09-26T10:30:47.247Z,18.05
2018-09-26T10:31:47.211Z,18.15
2018-09-26T10:32:47.218Z,18.48
2018-09-26T10:33:47.152Z,18.72
2018-09-26T10:34:47.122Z,18.82
2018-09-26T10:35:47.098Z,18.75
2018-09-26T10:36:47.056Z,18.50
2018-09-26T10:37:47.060Z,18.75
2018-09-26T10:38:46.983Z,18.67
2018-09-26T10:39:46.963Z,18.65
2018-09-26T10:40:46.950Z,18.70
2018-09-26T10:41:46.903Z,18.73
2018-09-26T10:42:46.859Z,19.00
2018-09-26T10:43:46.871Z,19.13
2018-09-26T10:44:46.800Z,19.22
2018-09-26T10:45:58.102Z,18.73
2018-09-26T10:46:46.812Z,18.37
2018-09-26T10:47:46.707Z,18.52
2018-09-26T10:48:47.377Z,18.52
2018-09-26T10:49:46.627Z,18.75
2018-09-26T10:50:46.597Z,18.88
2018-09-26T10:51:46.653Z,18.88
2018-09-26T10:52:46.553Z,18.95
2018-09-26T10:53:46.508Z,18.84
2018-09-26T10:54:46.528Z,18.84
2018-09-26T10:55:46.434Z,18.94
2018-09-26T10:56:46.456Z,18.91
2018-09-26T10:57:46.378Z,19.00
2018-09-26T10:58:46.348Z,18.66
2018-09-26T10:59:46.339Z,18.69
2018-09-26T11:00:46.276Z,18.82
2018-09-26T11:01:46.249Z,19.19
2018-09-26T11:02:46.210Z,18.94
2018-09-26T11:03:46.258Z,18.80
2018-09-26T11:04:46.179Z,18.98
2018-09-26T11:05:46.129Z,19.33
2018-09-26T11:06:46.097Z,19.55
2018-09-26T11:07:46.065Z,19.78
2018-09-26T11:08:56.080Z,19.46
2018-09-26T11:09:46.005Z,19.37
2018-09-26T11:10:45.963Z,19.62
2018-09-26T11:11:45.928Z,19.54
2018-09-26T11:12:45.983Z,19.59
2018-09-26T11:13:45.868Z,19.63
2018-09-26T11:14:45.868Z,19.50
2018-09-26T11:15:45.813Z,19.44
2018-09-26T11:16:45.812Z,19.41
2018-09-26T11:17:45.766Z,18.81
2018-09-26T11:18:45.756Z,18.51
2018-09-26T11:19:45.701Z,18.58
2018-09-26T11:20:45.647Z,18.73
2018-09-26T11:21:45.628Z,18.78
2018-09-26T11:22:45.593Z,18.94
2018-09-26T11:23:45.566Z,18.62
2018-09-26T11:24:45.611Z,18.78
2018-09-26T11:25:45.489Z,18.92
2018-09-26T11:26:45.486Z,19.16
2018-09-26T11:27:45.436Z,19.39
2018-09-26T11:28:45.406Z,19.28
2018-09-26T11:29:45.450Z,19.28
2018-09-26T11:30:45.350Z,19.28
2018-09-26T11:31:45.305Z,19.00
2018-09-26T11:32:45.269Z,19.29
2018-09-26T11:33:45.303Z,19.22
2018-09-26T11:34:45.211Z,19.19
2018-09-26T11:35:45.204Z,19.31
2018-09-26T11:36:45.163Z,19.36
2018-09-26T11:37:45.120Z,19.50
2018-09-26T11:38:45.103Z,19.47
2018-09-26T11:39:45.056Z,19.44
2018-09-26T11:40:45.047Z,19.55
2018-09-26T11:41:44.997Z,19.29
2018-09-26T11:42:44.957Z,19.22
2018-09-26T11:43:44.924Z,19.14
2018-09-26T11:44:44.901Z,19.28
2018-09-26T11:45:44.893Z,18.98
2018-09-26T11:46:44.840Z,18.99
2018-09-26T11:47:44.808Z,18.98
2018-09-26T11:48:44.776Z,19.19
2018-09-26T11:49:44.748Z,19.10
2018-09-26T11:50:44.702Z,18.84
2018-09-26T11:51:44.698Z,18.87
2018-09-26T11:52:44.644Z,19.13
2018-09-26T11:53:44.625Z,19.29
2018-09-26T11:54:44.586Z,19.33
2018-09-26T11:55:44.549Z,19.28
2018-09-26T11:56:44.514Z,19.40
2018-09-26T11:57:44.515Z,19.51
2018-09-26T11:58:44.463Z,19.59
2018-09-26T11:59:44.437Z,19.39
2018-09-26T12:00:44.407Z,19.25
2018-09-26T12:01:44.403Z,19.23
2018-09-26T12:02:44.429Z,19.22
2018-09-26T12:03:44.297Z,19.07
2018-09-26T12:04:44.280Z,18.69
2018-09-26T12:05:44.239Z,18.85
2018-09-26T12:06:44.214Z,18.84
2018-09-26T12:07:44.182Z,18.87
2018-09-26T12:08:44.192Z,18.94
2018-09-26T12:09:44.143Z,18.98
2018-09-26T12:10:44.089Z,19.08
2018-09-26T12:11:44.065Z,18.98
2018-09-26T12:12:44.022Z,18.99
2018-09-26T12:13:44.067Z,19.00
2018-09-26T12:14:43.955Z,18.98
2018-09-26T12:15:43.936Z,18.72
2018-09-26T12:16:43.890Z,18.50
2018-09-26T12:17:43.861Z,18.62
2018-09-26T12:18:43.841Z,18.66
2018-09-26T12:19:43.836Z,18.72
2018-09-26T12:20:43.843Z,18.69
2018-09-26T12:21:43.761Z,18.81
2018-09-26T12:22:43.857Z,18.84
2018-09-26T12:23:43.675Z,18.88
2018-09-26T12:24:43.669Z,18.81
2018-09-26T12:25:43.616Z,18.73
2018-09-26T12:26:43.584Z,18.72
2018-09-26T12:27:43.581Z,18.75
2018-09-26T12:28:43.511Z,18.73
2018-09-26T12:29:43.580Z,18.58
2018-09-26T12:30:43.462Z,18.62
2018-09-26T12:31:43.432Z,18.65
2018-09-26T12:32:43.428Z,18.72
2018-09-26T12:33:43.364Z,18.80
2018-09-26T12:34:43.351Z,18.85
2018-09-26T12:35:43.297Z,18.98
2018-09-26T12:36:43.251Z,18.99
2018-09-26T12:37:43.248Z,19.08
2018-09-26T12:38:43.233Z,19.18
2018-09-26T12:39:43.163Z,19.14
2018-09-26T12:40:43.135Z,19.26
2018-09-26T12:41:43.101Z,19.19
2018-09-26T12:42:43.129Z,19.18
2018-09-26T12:43:43.029Z,19.07
2018-09-26T12:44:43.038Z,18.98
2018-09-26T12:45:42.993Z,18.78
2018-09-26T12:46:42.945Z,18.54
2018-09-26T12:47:42.917Z,18.62
2018-09-26T12:48:42.885Z,18.55
2018-09-26T12:49:42.864Z,18.51
2018-09-26T12:50:42.826Z,18.45
2018-09-26T12:51:42.803Z,18.41
2018-09-26T12:52:42.753Z,18.45
2018-09-26T12:53:42.827Z,18.45
2018-09-26T12:54:42.688Z,18.57
2018-09-26T12:55:42.658Z,18.69
2018-09-26T12:56:42.622Z,18.81
2018-09-26T12:57:42.588Z,18.84
2018-09-26T12:58:42.570Z,18.87
2018-09-26T12:59:42.552Z,18.95
2018-09-26T13:00:42.518Z,18.87
2018-09-26T13:01:42.465Z,18.72
2018-09-26T13:02:42.497Z,18.73
2018-09-26T13:03:42.395Z,18.69